Lake Suzy, Florida
Current Conditions -  °F | °C
As of 12:53 AM on Monday 20 Oct 2014 (Local Time) from KPGD Reporting Station
Clear Clear  
Wind Chill: 19°   Ceiling: Unl
Heat Index: 19°   Visibility: 10mi
Dew Point: 17°   Wind: 5mph
Humidity: 87%   Direction: 80°E
Pressure: 30.04"   Gusts: NA
Location:  27.0717°N, 81.9802°W
Report Text: KPGD 200453Z AUTO 08004KT 10SM CLR 19/17 A3004 RMK AO2 SLP174 T01890167 403000167
Loading
Personal Weather Stations






























Interactive Weather Map
Tropical Storm Tracking
New forecast layout! Learn more

10-Day Weather Forecast

Advertisements
Track Severe Weather on mobile